Time;durP1;ratioP1;P1;durP2;ratioP2;P2;SDS_P1;SDS_P2;PMS_P1;PMS_P2;Temp;Humidity;BMP_temperature;BMP_pressure;BME280_temperature;BME280_humidity;BME280_pressure;Samples;Min_cycle;Max_cycle;Signal;HPM_P1;HPM_P2
2022/01/02 00:02:22;;;;;;;10.50;9.40;;;10.30;73.30;;;-142.21;100.00;112049.66;5088291;28;20791;-77
2022/01/02 00:04:53;;;;;;;10.67;9.07;;;10.20;73.30;;;-142.21;100.00;112049.66;5089433;28;20742;-77
2022/01/02 00:07:27;;;;;;;9.47;8.47;;;10.10;73.60;;;-142.21;100.00;112049.66;5091467;28;20962;-76
2022/01/02 00:09:56;;;;;;;12.37;10.57;;;10.10;74.00;;;-142.21;100.00;112049.66;5083061;28;20447;-76
2022/01/02 00:12:28;;;;;;;10.60;9.40;;;10.10;73.80;;;-142.21;100.00;112049.66;5088321;28;21018;-77
2022/01/02 00:14:59;;;;;;;12.43;9.60;;;10.10;73.60;;;-142.21;100.00;112049.66;5085056;28;20462;-77
2022/01/02 00:17:26;;;;;;;11.17;9.00;;;10.10;73.90;;;-142.21;100.00;112049.66;5093729;28;20512;-76
2022/01/02 00:19:57;;;;;;;12.67;10.97;;;10.10;73.60;;;-142.21;100.00;112049.66;5094380;28;20474;-77
2022/01/02 00:22:31;;;;;;;11.33;9.83;;;10.10;73.40;;;-142.21;100.00;112049.66;5089069;28;20457;-77
2022/01/02 00:25:00;;;;;;;11.20;8.77;;;10.10;73.60;;;-142.21;100.00;112049.66;5092888;28;20458;-77
2022/01/02 00:27:30;;;;;;;10.13;9.20;;;10.00;73.30;;;-142.21;100.00;112049.66;5091808;28;20544;-77
2022/01/02 00:29:58;;;;;;;11.37;9.60;;;10.00;73.40;;;-142.21;100.00;112049.66;5093479;28;20856;-77
2022/01/02 00:32:27;;;;;;;9.93;8.17;;;10.00;73.40;;;-142.21;100.00;112049.66;5092087;28;20554;-77
2022/01/02 00:34:57;;;;;;;11.53;9.33;;;10.00;73.30;;;-142.21;100.00;112049.66;5087761;28;20952;-79
2022/01/02 00:37:25;;;;;;;10.43;9.33;;;10.10;73.10;;;-142.21;100.00;112049.66;5094063;28;20521;-79
2022/01/02 00:39:52;;;;;;;10.47;7.90;;;10.10;72.90;;;-142.21;100.00;112049.66;5085340;28;20884;-76
2022/01/02 00:42:29;;;;;;;10.70;9.13;;;10.00;72.60;;;-142.21;100.00;112049.66;5094327;28;20479;-77
2022/01/02 00:45:01;;;;;;;9.07;8.17;;;10.00;72.90;;;-142.21;100.00;112049.66;5108967;28;20556;-80
2022/01/02 00:47:38;;;;;;;9.37;8.50;;;10.10;72.90;;;-142.21;100.00;112049.66;5111393;28;20815;-80
2022/01/02 00:50:11;;;;;;;9.27;8.37;;;10.00;72.90;;;-142.21;100.00;112049.66;5113699;28;21034;-80
2022/01/02 00:52:42;;;;;;;9.60;8.60;;;10.00;73.20;;;-142.21;100.00;112049.66;5109890;28;20473;-78
2022/01/02 00:55:13;;;;;;;10.73;9.30;;;9.90;74.30;;;-142.21;100.00;112049.66;5113897;28;20540;-77
2022/01/02 00:57:43;;;;;;;10.70;9.60;;;10.00;72.60;;;-142.21;100.00;112049.66;5112884;28;20456;-80
2022/01/02 01:00:14;;;;;;;11.63;10.13;;;10.00;72.40;;;-142.21;100.00;112049.66;5113532;28;20478;-79
2022/01/02 01:02:47;;;;;;;10.30;9.30;;;9.90;74.20;;;-142.21;100.00;112049.66;5101890;28;20456;-77
2022/01/02 01:05:22;;;;;;;9.60;8.60;;;9.90;74.50;;;-142.21;100.00;112049.66;5099903;28;20458;-78
2022/01/02 01:07:52;;;;;;;9.97;8.90;;;9.90;74.60;;;-142.21;100.00;112049.66;5102394;28;20483;-77
2022/01/02 01:10:21;;;;;;;13.73;9.57;;;9.90;74.60;;;-142.21;100.00;112049.66;5101123;28;20976;-77
2022/01/02 01:12:52;;;;;;;10.67;9.03;;;9.90;74.70;;;-142.21;100.00;112049.66;5105396;28;20460;-77
2022/01/02 01:15:21;;;;;;;10.23;8.27;;;9.90;74.50;;;-142.21;100.00;112049.66;5112117;28;20478;-77
2022/01/02 01:17:49;;;;;;;11.70;9.47;;;9.90;74.30;;;-142.21;100.00;112049.66;5110094;28;20550;-77
2022/01/02 01:20:18;;;;;;;11.10;9.47;;;9.90;74.10;;;-142.21;100.00;112049.66;5111443;28;20497;-76
2022/01/02 01:22:46;;;;;;;9.10;8.17;;;9.80;73.90;;;-142.21;100.00;112049.66;5099714;28;20469;-76
2022/01/02 01:25:16;;;;;;;9.53;8.57;;;9.70;74.00;;;-142.21;100.00;112049.66;5108391;28;20924;-79
2022/01/02 01:27:44;;;;;;;10.70;8.80;;;9.70;73.70;;;-142.21;100.00;112049.66;5096412;28;20462;-76
2022/01/02 01:30:14;;;;;;;9.10;8.20;;;9.50;73.80;;;-142.21;100.00;112049.66;5109068;28;20472;-79
2022/01/02 01:32:42;;;;;;;9.67;7.97;;;9.30;74.60;;;-142.21;100.00;112049.66;5110618;28;20945;-76
2022/01/02 01:35:11;;;;;;;8.83;8.00;;;9.20;75.00;;;-142.21;100.00;112049.66;5107332;28;20470;-76
2022/01/02 01:37:40;;;;;;;10.03;8.93;;;9.20;75.10;;;-142.21;100.00;112049.66;5112800;28;20504;-77
2022/01/02 01:40:12;;;;;;;8.77;7.90;;;9.20;74.70;;;-142.21;100.00;112049.66;5100559;28;20542;-78
2022/01/02 01:42:44;;;;;;;8.97;8.00;;;9.30;74.50;;;-142.21;100.00;112049.66;5103627;28;20496;-76
2022/01/02 01:45:30;;;;;;;8.03;7.17;;;9.30;74.10;;;-142.21;100.00;112049.66;5104280;28;20482;-76
2022/01/02 01:48:01;;;;;;;10.00;6.73;;;9.30;74.40;;;-142.21;100.00;112049.66;5074744;28;20521;-76
2022/01/02 01:50:31;;;;;;;9.47;7.37;;;9.30;74.10;;;-142.21;100.00;112049.66;5113730;28;20442;-76
2022/01/02 01:53:01;;;;;;;8.87;7.63;;;9.30;74.10;;;-142.21;100.00;112049.66;5100743;28;20903;-78
2022/01/02 01:55:28;;;;;;;7.80;7.10;;;9.30;74.10;;;-142.21;100.00;112049.66;5096477;28;20486;-77
2022/01/02 01:57:56;;;;;;;8.43;7.53;;;9.40;74.70;;;-142.21;100.00;112049.66;5110681;28;20482;-76
2022/01/02 02:00:24;;;;;;;8.23;7.10;;;9.40;74.10;;;-142.21;100.00;112049.66;5110897;28;20478;-76
2022/01/02 02:02:52;;;;;;;8.73;7.90;;;9.40;74.10;;;-142.21;100.00;112049.66;5101128;28;20541;-76
2022/01/02 02:05:19;;;;;;;8.83;7.93;;;9.30;73.50;;;-142.21;100.00;112049.66;5096374;28;20473;-76
2022/01/02 02:07:46;;;;;;;9.50;8.50;;;9.40;73.30;;;-142.21;100.00;112049.66;5107514;28;21000;-78
2022/01/02 02:10:23;;;;;;;8.23;7.43;;;9.30;73.60;;;-142.21;100.00;112049.66;5109907;28;20507;-76
2022/01/02 02:12:53;;;;;;;9.37;6.87;;;9.20;74.60;;;-142.21;100.00;112049.66;5107561;28;20483;-77
2022/01/02 02:15:23;;;;;;;7.77;7.07;;;9.20;74.10;;;-142.21;100.00;112049.66;5105671;28;20834;-77
2022/01/02 02:17:52;;;;;;;7.67;6.97;;;9.30;74.00;;;-142.21;100.00;112049.66;5101910;28;20519;-78
2022/01/02 02:20:25;;;;;;;8.47;7.57;;;9.30;73.90;;;-142.21;100.00;112049.66;5104248;28;21014;-77
2022/01/02 02:22:56;;;;;;;8.87;7.10;;;9.30;73.60;;;-142.21;100.00;112049.66;5110652;28;20533;-76
2022/01/02 02:25:26;;;;;;;8.47;7.40;;;9.20;73.80;;;-142.21;100.00;112049.66;5101469;28;20452;-77
2022/01/02 02:27:57;;;;;;;9.77;8.60;;;9.20;74.00;;;-142.21;100.00;112049.66;5112675;28;20552;-76
2022/01/02 02:30:27;;;;;;;7.27;6.57;;;9.20;74.10;;;-142.21;100.00;112049.66;5107307;28;20480;-76
2022/01/02 02:32:56;;;;;;;6.50;5.80;;;9.10;74.10;;;-142.21;100.00;112049.66;5106938;28;20818;-76
2022/01/02 02:35:25;;;;;;;9.57;6.80;;;9.10;74.50;;;-142.21;100.00;112049.66;5111737;28;20481;-76
2022/01/02 02:37:53;;;;;;;7.93;6.83;;;9.10;74.70;;;-142.21;100.00;112049.66;5096509;28;20502;-76
2022/01/02 02:40:24;;;;;;;7.67;6.93;;;9.10;75.10;;;-142.21;100.00;112049.66;5103382;28;20438;-75
2022/01/02 02:42:55;;;;;;;8.73;7.40;;;9.00;74.20;;;-142.21;100.00;112049.66;5106893;28;20446;-76
2022/01/02 02:51:08;;;;;;;11.37;9.53;;;8.70;74.80;;;-142.21;100.00;112049.66;5103478;28;20567;-76
2022/01/02 02:53:39;;;;;;;8.20;7.40;;;8.50;75.40;;;-142.21;100.00;112049.66;5100783;28;20471;-76
2022/01/02 02:56:14;;;;;;;8.87;7.40;;;8.50;75.10;;;-142.21;100.00;112049.66;5112173;28;20499;-77
2022/01/02 02:58:42;;;;;;;7.67;6.77;;;8.60;75.10;;;-142.21;100.00;112049.66;5110974;28;20819;-75
2022/01/02 03:01:12;;;;;;;9.00;7.87;;;8.70;74.50;;;-142.21;100.00;112049.66;5111139;28;20532;-77
2022/01/02 03:03:40;;;;;;;8.53;7.23;;;8.80;74.30;;;-142.21;100.00;112049.66;5097556;28;20482;-76
2022/01/02 03:06:10;;;;;;;8.47;7.60;;;8.80;74.20;;;-142.21;100.00;112049.66;5096741;28;20984;-80
2022/01/02 03:08:40;;;;;;;7.87;7.00;;;8.90;74.10;;;-142.21;100.00;112049.66;5102449;28;20453;-76
2022/01/02 03:11:10;;;;;;;6.77;6.10;;;8.90;73.80;;;-142.21;100.00;112049.66;5111717;28;20960;-76
2022/01/02 03:13:37;;;;;;;9.97;8.57;;;8.90;73.30;;;-142.21;100.00;112049.66;5106297;28;20441;-78
2022/01/02 03:16:04;;;;;;;7.70;6.93;;;8.80;73.70;;;-142.21;100.00;112049.66;5097465;28;20892;-77
2022/01/02 03:18:32;;;;;;;8.70;7.80;;;8.80;74.00;;;-142.21;100.00;112049.66;5110594;28;20473;-76
2022/01/02 03:20:59;;;;;;;7.37;6.67;;;8.80;74.20;;;-142.21;100.00;112049.66;5104629;28;20488;-77
2022/01/02 03:23:28;;;;;;;8.30;7.50;;;8.80;74.00;;;-142.21;100.00;112049.66;5100888;28;20561;-77
2022/01/02 03:25:55;;;;;;;10.20;8.27;;;8.80;74.40;;;-142.21;100.00;112049.66;5092403;28;20561;-76
2022/01/02 03:28:23;;;;;;;7.03;6.33;;;8.70;74.20;;;-142.21;100.00;112049.66;5105826;28;20540;-76
2022/01/02 03:30:51;;;;;;;9.33;7.63;;;8.70;74.40;;;-142.21;100.00;112049.66;5106120;28;20473;-78
2022/01/02 03:33:19;;;;;;;7.93;7.13;;;8.70;74.20;;;-142.21;100.00;112049.66;5100085;28;20469;-76
2022/01/02 03:35:46;;;;;;;8.70;7.80;;;8.70;73.90;;;-142.21;100.00;112049.66;5100583;28;20514;-76
2022/01/02 03:38:13;;;;;;;8.17;7.37;;;8.70;74.10;;;-142.21;100.00;112049.66;5099988;28;20481;-77
2022/01/02 03:40:42;;;;;;;8.43;7.30;;;8.60;74.10;;;-142.21;100.00;112049.66;5100589;28;20532;-77
2022/01/02 03:43:09;;;;;;;7.03;6.33;;;8.50;74.60;;;-142.21;100.00;112049.66;5108081;28;20446;-78
2022/01/02 03:45:37;;;;;;;7.47;6.53;;;8.40;74.60;;;-142.21;100.00;112049.66;5097239;28;20517;-76
2022/01/02 03:48:05;;;;;;;8.77;7.13;;;8.50;74.80;;;-142.21;100.00;112049.66;5097025;28;20453;-76
2022/01/02 03:50:32;;;;;;;8.17;6.90;;;8.50;74.60;;;-142.21;100.00;112049.66;5096221;28;20533;-76
2022/01/02 03:52:59;;;;;;;8.20;6.47;;;8.60;74.50;;;-142.21;100.00;112049.66;5107994;28;20449;-76
2022/01/02 03:55:26;;;;;;;8.57;6.57;;;8.70;74.50;;;-142.21;100.00;112049.66;5102667;28;20483;-78
2022/01/02 03:57:55;;;;;;;9.50;7.00;;;8.70;74.50;;;-142.21;100.00;112049.66;5104569;28;20481;-75
2022/01/02 04:00:22;;;;;;;6.73;6.03;;;8.80;74.60;;;-142.21;100.00;112049.66;5105335;28;20547;-76
2022/01/02 04:02:50;;;;;;;7.77;6.13;;;8.80;74.60;;;-142.21;100.00;112049.66;5107015;28;20456;-77
2022/01/02 04:05:18;;;;;;;8.30;5.97;;;8.80;74.80;;;-142.21;100.00;112049.66;5107843;28;20901;-76
2022/01/02 04:07:47;;;;;;;7.13;6.17;;;8.70;75.00;;;-142.21;100.00;112049.66;5109216;28;20445;-76
2022/01/02 04:10:18;;;;;;;7.63;6.83;;;8.80;75.00;;;-142.21;100.00;112049.66;5107077;28;20433;-76
2022/01/02 04:12:46;;;;;;;7.20;6.50;;;8.90;75.00;;;-142.21;100.00;112049.66;5094782;28;20426;-76
2022/01/02 04:15:16;;;;;;;6.93;6.33;;;8.90;74.40;;;-142.21;100.00;112049.66;5099431;28;20445;-76
2022/01/02 04:17:43;;;;;;;6.10;5.50;;;8.80;74.70;;;-142.21;100.00;112049.66;5094442;28;20477;-78
2022/01/02 04:20:15;;;;;;;6.50;5.83;;;8.90;74.80;;;-142.21;100.00;112049.66;5111521;28;20491;-77
2022/01/02 04:22:44;;;;;;;7.97;7.17;;;8.90;74.80;;;-142.21;100.00;112049.66;5105814;28;20474;-76
2022/01/02 04:25:13;;;;;;;6.13;5.53;;;8.90;74.80;;;-142.21;100.00;112049.66;5111207;28;20523;-76
2022/01/02 04:27:40;;;;;;;6.60;5.70;;;9.00;74.90;;;-142.21;100.00;112049.66;5097250;28;20548;-77
2022/01/02 04:30:12;;;;;;;8.57;6.80;;;9.00;74.80;;;-142.21;100.00;112049.66;5111248;28;20477;-75
2022/01/02 04:32:41;;;;;;;6.43;5.83;;;9.00;75.30;;;-142.21;100.00;112049.66;5104754;28;20514;-77
2022/01/02 04:35:10;;;;;;;7.00;5.93;;;9.00;76.40;;;-142.21;100.00;112049.66;5111606;28;20993;-77
2022/01/02 04:37:37;;;;;;;7.43;6.57;;;9.00;75.50;;;-142.21;100.00;112049.66;5109986;28;20525;-77
2022/01/02 04:40:07;;;;;;;8.20;7.27;;;9.10;75.00;;;-142.21;100.00;112049.66;5111471;28;20768;-77
2022/01/02 04:42:34;;;;;;;7.73;6.43;;;9.10;75.00;;;-142.21;100.00;112049.66;5095405;28;20462;-77
2022/01/02 04:45:01;;;;;;;6.73;6.10;;;9.20;74.70;;;-142.21;100.00;112049.66;5112857;28;20489;-76
2022/01/02 04:47:29;;;;;;;6.60;5.97;;;9.20;74.50;;;-142.21;100.00;112049.66;5113988;28;20450;-76
2022/01/02 04:49:58;;;;;;;7.30;6.60;;;9.20;74.40;;;-142.21;100.00;112049.66;5112544;28;20864;-77
2022/01/02 04:52:25;;;;;;;9.03;7.23;;;9.20;75.10;;;-142.21;100.00;112049.66;5113057;28;20490;-77
2022/01/02 04:54:52;;;;;;;7.00;6.40;;;9.10;74.50;;;-142.21;100.00;112049.66;5109260;28;20534;-77
2022/01/02 04:57:19;;;;;;;7.60;6.23;;;9.00;74.70;;;-142.21;100.00;112049.66;5111831;28;21012;-77
2022/01/02 04:59:47;;;;;;;8.40;7.20;;;9.00;74.70;;;-142.21;100.00;112049.66;5111915;28;20532;-76
2022/01/02 05:02:14;;;;;;;8.00;6.90;;;9.00;74.30;;;-142.21;100.00;112049.66;5108534;28;20470;-76
2022/01/02 05:04:41;;;;;;;6.60;5.90;;;9.00;74.30;;;-142.21;100.00;112049.66;5102692;28;20572;-77
2022/01/02 05:07:12;;;;;;;8.13;6.30;;;8.90;74.70;;;-142.21;100.00;112049.66;5106900;28;20477;-78
2022/01/02 05:09:39;;;;;;;7.50;6.73;;;8.80;74.90;;;-142.21;100.00;112049.66;5100789;28;20488;-77
2022/01/02 05:12:06;;;;;;;6.80;6.17;;;8.80;75.00;;;-142.21;100.00;112049.66;5110529;28;20840;-76
2022/01/02 05:14:33;;;;;;;7.20;6.23;;;8.80;75.20;;;-142.21;100.00;112049.66;5113351;28;20504;-77
2022/01/02 05:17:01;;;;;;;7.43;6.13;;;8.80;75.30;;;-142.21;100.00;112049.66;5111202;28;20446;-77
2022/01/02 05:19:28;;;;;;;7.30;6.10;;;8.80;75.30;;;-142.21;100.00;112049.66;5107000;28;21009;-78
2022/01/02 05:21:55;;;;;;;7.53;6.07;;;8.80;75.10;;;-142.21;100.00;112049.66;5111462;28;20961;-78
2022/01/02 05:24:24;;;;;;;7.03;6.37;;;8.90;75.10;;;-142.21;100.00;112049.66;5103923;28;20514;-77
2022/01/02 05:26:53;;;;;;;7.93;5.97;;;8.90;74.90;;;-142.21;100.00;112049.66;5108037;28;20513;-77
2022/01/02 05:29:21;;;;;;;7.03;6.33;;;8.90;75.10;;;-142.21;100.00;112049.66;5112007;28;20442;-76
2022/01/02 05:31:48;;;;;;;7.03;6.30;;;9.00;75.10;;;-142.21;100.00;112049.66;5111264;28;20481;-76
2022/01/02 05:34:15;;;;;;;6.53;5.93;;;9.00;74.90;;;-142.21;100.00;112049.66;5112344;28;20964;-76
2022/01/02 05:36:48;;;;;;;6.30;5.70;;;9.00;75.00;;;-142.21;100.00;112049.66;5099479;28;20435;-76
2022/01/02 05:39:17;;;;;;;6.80;6.10;;;9.10;74.80;;;-142.21;100.00;112049.66;5110805;28;20453;-76
2022/01/02 05:41:49;;;;;;;6.77;5.77;;;9.10;74.80;;;-142.21;100.00;112049.66;5104566;28;20450;-77
2022/01/02 05:44:17;;;;;;;6.40;5.80;;;9.20;74.60;;;-142.21;100.00;112049.66;5110670;28;20568;-76
2022/01/02 05:46:46;;;;;;;8.80;5.60;;;9.20;74.60;;;-142.21;100.00;112049.66;5094950;28;20441;-77
2022/01/02 05:49:14;;;;;;;6.50;5.90;;;9.20;74.80;;;-142.21;100.00;112049.66;5113271;28;20450;-77
2022/01/02 05:51:42;;;;;;;6.60;5.27;;;9.20;74.80;;;-142.21;100.00;112049.66;5105927;28;20474;-76
2022/01/02 05:54:10;;;;;;;6.70;5.60;;;9.20;74.90;;;-142.21;100.00;112049.66;5112573;28;20544;-76
2022/01/02 05:56:37;;;;;;;6.10;5.60;;;9.20;75.10;;;-142.21;100.00;112049.66;5110083;28;20474;-76
2022/01/02 05:59:06;;;;;;;6.37;5.77;;;9.20;75.00;;;-142.21;100.00;112049.66;5103388;28;20451;-78
2022/01/02 06:01:34;;;;;;;5.77;5.20;;;9.20;74.70;;;-142.21;100.00;112049.66;5102729;28;20859;-77
2022/01/02 06:04:01;;;;;;;7.67;5.83;;;9.20;74.60;;;-142.21;100.00;112049.66;5107843;28;20537;-77
2022/01/02 06:06:28;;;;;;;7.17;5.07;;;9.20;74.50;;;-142.21;100.00;112049.66;5102309;28;20534;-77
2022/01/02 06:08:55;;;;;;;6.30;5.50;;;9.20;74.50;;;-142.21;100.00;112049.66;5112044;28;20498;-77
2022/01/02 06:11:23;;;;;;;7.13;6.27;;;9.20;74.50;;;-142.21;100.00;112049.66;5112658;28;20887;-77
2022/01/02 06:13:56;;;;;;;6.23;5.63;;;9.10;74.90;;;-142.21;100.00;112049.66;5098434;28;20878;-75
2022/01/02 06:16:24;;;;;;;6.10;5.47;;;9.10;74.80;;;-142.21;100.00;112049.66;5109760;28;20442;-77
2022/01/02 06:18:52;;;;;;;7.57;6.27;;;9.20;75.00;;;-142.21;100.00;112049.66;5095633;28;20985;-77
2022/01/02 06:21:20;;;;;;;6.27;5.67;;;9.20;74.80;;;-142.21;100.00;112049.66;5112638;28;20765;-79
2022/01/02 06:23:47;;;;;;;6.50;5.43;;;9.20;75.00;;;-142.21;100.00;112049.66;5112024;28;21216;-76
2022/01/02 06:26:14;;;;;;;5.93;5.33;;;9.20;75.00;;;-142.21;100.00;112049.66;5109493;28;20505;-76
2022/01/02 06:28:42;;;;;;;6.83;5.20;;;9.20;75.10;;;-142.21;100.00;112049.66;5106571;28;20545;-77
2022/01/02 06:31:09;;;;;;;5.97;5.37;;;9.20;75.00;;;-142.21;100.00;112049.66;5106487;28;20488;-76
2022/01/02 06:33:39;;;;;;;6.80;5.63;;;9.30;74.70;;;-142.21;100.00;112049.66;5107827;28;20808;-76
2022/01/02 06:36:06;;;;;;;6.00;5.00;;;9.30;74.70;;;-142.21;100.00;112049.66;5103358;28;20446;-76
2022/01/02 06:38:33;;;;;;;6.07;5.40;;;9.30;74.50;;;-142.21;100.00;112049.66;5109883;28;20470;-77
2022/01/02 06:41:00;;;;;;;6.60;5.27;;;9.30;74.70;;;-142.21;100.00;112049.66;5108077;28;20450;-76
2022/01/02 06:43:28;;;;;;;6.07;5.47;;;9.30;74.70;;;-142.21;100.00;112049.66;5110283;28;20501;-77
2022/01/02 06:46:01;;;;;;;5.17;4.63;;;9.30;74.80;;;-142.21;100.00;112049.66;5100806;28;20990;-77
2022/01/02 06:48:28;;;;;;;7.27;5.50;;;9.30;74.80;;;-142.21;100.00;112049.66;5113105;28;20521;-76
2022/01/02 06:50:57;;;;;;;6.17;5.57;;;9.30;74.70;;;-142.21;100.00;112049.66;5095823;28;20446;-78
2022/01/02 06:53:24;;;;;;;6.03;5.17;;;9.20;75.00;;;-142.21;100.00;112049.66;5104621;28;20534;-77
2022/01/02 06:55:51;;;;;;;5.83;5.30;;;9.10;75.30;;;-142.21;100.00;112049.66;5092180;28;20439;-81
2022/01/02 06:58:18;;;;;;;5.67;5.10;;;9.00;75.70;;;-142.21;100.00;112049.66;5092828;28;20529;-79
2022/01/02 07:00:46;;;;;;;7.77;5.30;;;9.10;75.50;;;-142.21;100.00;112049.66;5103036;28;20478;-76
2022/01/02 07:03:13;;;;;;;5.50;4.87;;;9.10;75.40;;;-142.21;100.00;112049.66;5091940;28;20998;-76
2022/01/02 07:05:40;;;;;;;5.83;5.20;;;9.20;75.20;;;-142.21;100.00;112049.66;5096044;28;20904;-77
2022/01/02 07:08:09;;;;;;;6.30;4.80;;;9.20;74.90;;;-142.21;100.00;112049.66;5112314;28;20482;-77
2022/01/02 07:10:36;;;;;;;5.00;4.50;;;9.20;75.30;;;-142.21;100.00;112049.66;5112942;28;20449;-78
2022/01/02 07:13:03;;;;;;;6.83;5.90;;;9.20;75.20;;;-142.21;100.00;112049.66;5105808;28;20537;-77
2022/01/02 07:15:31;;;;;;;5.63;5.13;;;9.20;75.50;;;-142.21;100.00;112049.66;5105306;28;20506;-77
2022/01/02 07:17:58;;;;;;;5.37;4.87;;;9.10;75.10;;;-142.21;100.00;112049.66;5112408;28;20430;-79
2022/01/02 07:20:25;;;;;;;5.77;4.53;;;9.10;75.40;;;-142.21;100.00;112049.66;5112554;28;20472;-80
2022/01/02 07:22:53;;;;;;;6.00;5.00;;;9.10;75.10;;;-142.21;100.00;112049.66;5113759;28;21003;-80
2022/01/02 07:25:21;;;;;;;6.87;5.07;;;9.10;75.30;;;-142.21;100.00;112049.66;5113454;28;20223;-80
2022/01/02 07:27:49;;;;;;;5.63;4.97;;;9.10;74.60;;;-142.21;100.00;112049.66;5101568;28;20978;-79
2022/01/02 07:30:16;;;;;;;6.47;4.80;;;9.20;74.80;;;-142.21;100.00;112049.66;5092866;28;20484;-77
2022/01/02 07:32:43;;;;;;;6.07;5.47;;;9.20;75.00;;;-142.21;100.00;112049.66;5107596;28;20446;-81
2022/01/02 07:35:11;;;;;;;5.10;4.60;;;9.20;75.00;;;-142.21;100.00;112049.66;5112593;28;20495;-80
2022/01/02 07:37:38;;;;;;;6.47;5.87;;;9.20;74.70;;;-142.21;100.00;112049.66;5114214;28;20956;-82
2022/01/02 07:40:07;;;;;;;6.37;5.67;;;9.20;75.00;;;-142.21;100.00;112049.66;5110207;28;20477;-83
2022/01/02 07:42:36;;;;;;;6.27;5.50;;;9.20;75.10;;;-142.21;100.00;112049.66;5101509;28;20477;-81
2022/01/02 07:45:05;;;;;;;6.77;6.00;;;9.10;75.40;;;-142.21;100.00;112049.66;5113471;28;20485;-81
2022/01/02 07:47:33;;;;;;;5.27;4.77;;;9.10;75.70;;;-142.21;100.00;112049.66;5114188;28;20454;-81
2022/01/02 07:50:00;;;;;;;7.60;5.20;;;9.00;75.20;;;-142.21;100.00;112049.66;5114285;28;20498;-83
2022/01/02 07:52:27;;;;;;;6.27;4.90;;;9.10;75.30;;;-142.21;100.00;112049.66;5098318;28;20477;-84
2022/01/02 07:54:55;;;;;;;5.37;4.87;;;9.10;75.30;;;-142.21;100.00;112049.66;5108953;28;20518;-84
2022/01/02 07:57:22;;;;;;;5.87;5.10;;;9.20;75.30;;;-142.21;100.00;112049.66;5113591;28;20492;-83
2022/01/02 07:59:51;;;;;;;6.53;5.20;;;9.20;75.10;;;-142.21;100.00;112049.66;5105421;28;20837;-78
2022/01/02 08:02:25;;;;;;;7.07;5.20;;;9.20;75.40;;;-142.21;100.00;112049.66;5108747;28;20458;-78
2022/01/02 08:04:52;;;;;;;5.97;4.80;;;9.20;76.10;;;-142.21;100.00;112049.66;5091695;28;20415;-77
2022/01/02 08:07:19;;;;;;;6.27;4.93;;;9.20;75.50;;;-142.21;100.00;112049.66;5091995;28;20441;-78
2022/01/02 08:09:46;;;;;;;6.53;4.73;;;9.30;75.50;;;-142.21;100.00;112049.66;5099499;28;20510;-79
2022/01/02 08:12:14;;;;;;;5.00;4.43;;;9.30;75.50;;;-142.21;100.00;112049.66;5112012;28;20536;-78
2022/01/02 08:14:41;;;;;;;5.37;4.87;;;9.40;75.40;;;-142.21;100.00;112049.66;5112906;28;21016;-77
2022/01/02 08:17:09;;;;;;;5.00;4.50;;;9.50;75.50;;;-142.21;100.00;112049.66;5113165;28;20541;-77
2022/01/02 08:19:37;;;;;;;6.40;5.20;;;9.50;75.30;;;-142.21;100.00;112049.66;5115335;28;20476;-78
2022/01/02 08:22:04;;;;;;;6.60;5.43;;;9.40;75.20;;;-142.21;100.00;112049.66;5099246;28;20893;-76
2022/01/02 08:24:32;;;;;;;5.20;4.70;;;9.40;75.80;;;-142.21;100.00;112049.66;5116004;28;20794;-77
2022/01/02 08:27:02;;;;;;;5.77;5.20;;;9.40;75.80;;;-142.21;100.00;112049.66;5111566;28;20576;-82
2022/01/02 08:29:29;;;;;;;6.43;5.23;;;9.50;76.00;;;-142.21;100.00;112049.66;5106381;28;20932;-83
2022/01/02 08:31:56;;;;;;;7.10;5.63;;;9.50;76.30;;;-142.21;100.00;112049.66;5109082;28;20540;-84
2022/01/02 08:34:26;;;;;;;7.07;6.00;;;9.70;76.70;;;-142.21;100.00;112049.66;5115287;28;20513;-82
2022/01/02 08:36:54;;;;;;;7.20;6.50;;;9.70;77.70;;;-142.21;100.00;112049.66;5113733;28;20544;-83
2022/01/02 08:39:22;;;;;;;7.63;6.60;;;9.70;78.90;;;-142.21;100.00;112049.66;5117484;28;20445;-82
2022/01/02 08:41:49;;;;;;;9.53;6.53;;;9.80;79.10;;;-142.21;100.00;112049.66;5113893;28;20510;-83
2022/01/02 08:44:16;;;;;;;8.00;7.20;;;9.90;79.20;;;-142.21;100.00;112049.66;5113155;28;20527;-81
2022/01/02 08:46:44;;;;;;;7.63;6.83;;;10.00;77.90;;;-142.21;100.00;112049.66;5116202;28;20477;-83
2022/01/02 08:49:12;;;;;;;9.47;7.30;;;10.10;77.90;;;-142.21;100.00;112049.66;5113898;28;20507;-81
2022/01/02 08:52:05;;;;;;;8.47;7.57;;;10.30;78.00;;;-142.21;100.00;112049.66;5111987;28;20441;-78
2022/01/02 08:54:38;;;;;;;9.07;8.00;;;10.40;78.50;;;-142.21;100.00;112049.66;5120288;28;20458;-82
2022/01/02 08:57:06;;;;;;;8.47;7.57;;;10.40;78.20;;;-142.21;100.00;112049.66;5108186;28;20442;-83
2022/01/02 08:59:36;;;;;;;9.03;8.13;;;10.60;78.20;;;-142.21;100.00;112049.66;5112236;28;20441;-80
2022/01/02 09:02:04;;;;;;;8.50;7.60;;;10.60;78.10;;;-142.21;100.00;112049.66;5112116;28;20495;-80
2022/01/02 09:04:42;;;;;;;9.20;8.03;;;10.70;78.00;;;-142.21;100.00;112049.66;5103737;28;20499;-83
2022/01/02 09:07:12;;;;;;;9.17;8.07;;;10.70;77.80;;;-142.21;100.00;112049.66;5111270;28;20469;-83
2022/01/02 09:09:43;;;;;;;8.93;8.03;;;10.80;77.90;;;-142.21;100.00;112049.66;5111636;28;20461;-82
2022/01/02 09:12:12;;;;;;;9.90;8.40;;;10.80;77.70;;;-142.21;100.00;112049.66;5113755;28;20929;-84
2022/01/02 09:14:39;;;;;;;9.17;8.10;;;10.90;77.60;;;-142.21;100.00;112049.66;5112954;28;20955;-83
2022/01/02 09:17:12;;;;;;;9.87;8.60;;;10.90;77.10;;;-142.21;100.00;112049.66;5103528;28;20450;-84
2022/01/02 09:19:45;;;;;;;10.27;9.27;;;11.00;76.80;;;-142.21;100.00;112049.66;5099673;28;20458;-83
2022/01/02 09:22:57;;;;;;;11.77;9.43;;;11.00;76.40;;;-142.21;100.00;112049.66;5099126;28;20875;-87
2022/01/02 09:25:26;;;;;;;12.40;9.30;;;11.10;77.50;;;-142.21;100.00;112049.66;5095856;28;20531;-83
2022/01/02 09:28:00;;;;;;;10.43;9.33;;;11.00;76.20;;;-142.21;100.00;112049.66;5114924;28;20477;-85
2022/01/02 09:31:41;;;;;;;11.03;9.23;;;11.20;76.20;;;-142.21;100.00;112049.66;5101012;28;20442;-84
2022/01/02 09:34:09;;;;;;;11.43;9.73;;;11.30;76.30;;;-142.21;100.00;112049.66;5113415;28;20547;-82
2022/01/02 09:36:38;;;;;;;10.33;9.13;;;11.30;74.80;;;-142.21;100.00;112049.66;5100550;28;20457;-83
2022/01/02 09:39:09;;;;;;;11.70;9.27;;;11.30;75.50;;;-142.21;100.00;112049.66;5117864;28;20445;-84
2022/01/02 09:42:10;;;;;;;10.53;9.00;;;11.40;75.20;;;-142.21;100.00;112049.66;5117965;28;20442;-84
2022/01/02 09:45:05;;;;;;;11.97;9.33;;;11.40;74.60;;;-142.21;100.00;112049.66;5109664;28;20481;-84
2022/01/02 09:50:23;;;;;;;10.30;9.17;;;11.30;75.50;;;-142.21;100.00;112049.66;5100491;28;20785;-82
2022/01/02 09:53:24;;;;;;;10.00;8.63;;;11.30;75.50;;;-142.21;100.00;112049.66;5116898;28;21009;-85
2022/01/02 09:59:02;;;;;;;10.50;9.23;;;11.30;75.40;;;-142.21;100.00;112049.66;5103106;28;20438;-84
2022/01/02 10:01:32;;;;;;;10.47;9.37;;;11.40;75.30;;;-142.21;100.00;112049.66;5112559;28;20821;-85
2022/01/02 10:04:05;;;;;;;10.10;9.10;;;11.50;75.00;;;-142.21;100.00;112049.66;5118027;28;20492;-82
2022/01/02 10:10:16;;;;;;;10.83;8.90;;;11.60;74.10;;;-142.21;100.00;112049.66;5105697;28;20432;-83
2022/01/02 10:16:03;;;;;;;10.17;8.70;;;11.50;74.40;;;-142.21;100.00;112049.66;5114423;28;20450;-82
2022/01/02 10:18:31;;;;;;;10.27;9.27;;;11.60;74.40;;;-142.21;100.00;112049.66;5117042;28;20449;-83
2022/01/02 10:21:01;;;;;;;11.53;9.47;;;11.70;74.10;;;-142.21;100.00;112049.66;5116666;28;20457;-82
2022/01/02 10:23:32;;;;;;;9.13;8.23;;;11.70;73.90;;;-142.21;100.00;112049.66;5110276;28;20448;-83
2022/01/02 10:26:03;;;;;;;9.27;8.27;;;11.80;73.40;;;-142.21;100.00;112049.66;5096673;28;20478;-86
2022/01/02 10:35:26;;;;;;;9.50;7.50;;;12.00;72.00;;;-142.21;100.00;112049.66;1368819;23;20807;-79